Aberdeen, Pennsylvania
Current Conditions -  °F | °C
As of 12:56 AM on Sunday 23 Nov 2014 (Local Time) from KMDT Reporting Station
Scattered Clouds Scattered Clouds  
Wind Chill: 32°   Ceiling: Unl
Heat Index: 36°   Visibility: 10mi
Dew Point: 20°   Wind: 5mph
Humidity: 52%   Direction: 110°ESE
Pressure: 30.19"   Gusts: NA
Location:  40.1674°N, 76.6045°W
Report Text: KMDT 230556Z 11004KT 10SM SCT110 02/M07 A3019 RMK AO2 SLP226 T00221067 10039 21017 58005
Loading
Personal Weather Stations






























Interactive Weather Map New forecast layout! Learn more

10-Day Weather Forecast

Advertisements
Track Severe Weather on mobile